Time;durP1;ratioP1;P1;durP2;ratioP2;P2;SDS_P1;SDS_P2;PMS_P1;PMS_P2;Temp;Humidity;BMP_temperature;BMP_pressure;BME280_temperature;BME280_humidity;BME280_pressure;Samples;Min_cycle;Max_cycle;Signal;HPM_P1;HPM_P2
2022/03/28 00:00:25;;;;;;;2.35;2.25;;;6.90;99.90;;;;;;5021448;28;20056;-82
2022/03/28 00:02:51;;;;;;;2.00;1.80;;;6.90;99.90;;;;;;5020361;28;20049;-83
2022/03/28 00:05:17;;;;;;;1.25;1.25;;;6.90;99.90;;;;;;5020095;28;20053;-83
2022/03/28 00:07:43;;;;;;;7.35;1.70;;;6.90;99.90;;;;;;5036297;28;20045;-83
2022/03/28 00:10:09;;;;;;;1.40;1.40;;;6.90;99.90;;;;;;5019447;28;20520;-79
2022/03/28 00:12:35;;;;;;;1.05;1.05;;;6.90;99.90;;;;;;5022179;28;20156;-83
2022/03/28 00:15:01;;;;;;;2.33;1.83;;;6.90;99.90;;;;;;5021433;28;20068;-83
2022/03/28 00:17:27;;;;;;;1.45;1.42;;;6.90;99.90;;;;;;5021212;28;20120;-83
2022/03/28 00:19:53;;;;;;;3.25;3.05;;;6.90;99.90;;;;;;5021925;28;20042;-83
2022/03/28 00:22:18;;;;;;;2.42;2.25;;;6.90;99.90;;;;;;5018849;28;20175;-83
2022/03/28 00:24:44;;;;;;;2.15;1.95;;;6.90;99.90;;;;;;5023001;28;20454;-83
2022/03/28 00:27:09;;;;;;;1.90;1.80;;;6.90;99.90;;;;;;5024888;28;20547;-83
2022/03/28 00:29:35;;;;;;;4.28;2.10;;;6.90;99.90;;;;;;5025248;28;20396;-83
2022/03/28 00:32:02;;;;;;;9.63;3.58;;;6.90;99.90;;;;;;5025378;28;20045;-83
2022/03/28 00:34:27;;;;;;;3.90;2.17;;;6.90;99.90;;;;;;5007667;28;20426;-83
2022/03/28 00:36:53;;;;;;;2.20;2.03;;;6.90;99.90;;;;;;5024335;28;20045;-83
2022/03/28 00:39:20;;;;;;;2.85;2.60;;;6.90;99.90;;;;;;5024642;28;20048;-83
2022/03/28 00:41:51;;;;;;;1.75;1.60;;;6.90;99.90;;;;;;5024891;28;20056;-84
2022/03/28 00:44:16;;;;;;;3.03;2.45;;;6.90;99.90;;;;;;5023646;28;20045;-83
2022/03/28 00:46:42;;;;;;;2.08;1.98;;;6.90;99.90;;;;;;5044463;28;20051;-83
2022/03/28 00:49:08;;;;;;;2.35;2.22;;;6.90;99.90;;;;;;5045235;28;20037;-82
2022/03/28 00:51:34;;;;;;;2.65;2.50;;;6.90;99.90;;;;;;5044357;28;20048;-83
2022/03/28 00:54:00;;;;;;;2.55;2.45;;;6.90;99.90;;;;;;5044773;28;20476;-83
2022/03/28 00:56:26;;;;;;;3.50;3.20;;;6.80;99.90;;;;;;5044498;28;20070;-83
2022/03/28 00:58:51;;;;;;;2.60;2.40;;;6.80;99.90;;;;;;5044492;28;20041;-84
2022/03/28 01:01:17;;;;;;;2.60;2.17;;;6.80;99.90;;;;;;5027799;28;20133;-84
2022/03/28 01:03:43;;;;;;;2.15;2.05;;;6.80;99.90;;;;;;5024466;28;20053;-84
2022/03/28 01:06:09;;;;;;;2.28;2.13;;;6.80;99.90;;;;;;5022400;28;20439;-83
2022/03/28 01:08:35;;;;;;;2.17;2.08;;;6.80;99.90;;;;;;5024696;28;20706;-83
2022/03/28 01:11:07;;;;;;;3.63;2.92;;;6.80;99.90;;;;;;5024528;28;20192;-83
2022/03/28 01:13:34;;;;;;;;;;;6.80;99.90;;;;;;5025048;28;20045;-83
2022/03/28 01:15:59;;;;;;;2.47;2.38;;;6.80;99.90;;;;;;5024712;28;19931;-83
2022/03/28 01:18:26;;;;;;;4.85;3.17;;;6.80;99.90;;;;;;5023061;28;20045;-83
2022/03/28 01:20:56;;;;;;;1.80;1.70;;;6.80;99.90;;;;;;5024069;28;20037;-83
2022/03/28 01:23:22;;;;;;;2.85;2.53;;;6.80;99.90;;;;;;5024159;28;20041;-83
2022/03/28 01:25:51;;;;;;;4.88;2.67;;;6.80;99.90;;;;;;5024081;28;20492;-83
2022/03/28 01:28:21;;;;;;;2.55;2.45;;;6.80;99.90;;;;;;5023996;28;20042;-83
2022/03/28 01:30:47;;;;;;;6.22;3.15;;;6.80;99.90;;;;;;5024680;28;20048;-84
2022/03/28 01:33:13;;;;;;;5.38;2.60;;;6.80;99.90;;;;;;5023526;28;20064;-84
2022/03/28 01:35:41;;;;;;;1.73;1.67;;;6.80;99.90;;;;;;5023872;28;20045;-83
2022/03/28 01:38:11;;;;;;;2.85;2.30;;;6.80;99.90;;;;;;5023644;28;20416;-83
2022/03/28 01:40:41;;;;;;;1.90;1.80;;;6.80;99.90;;;;;;5022889;28;20049;-84
2022/03/28 01:43:07;;;;;;;3.33;2.00;;;6.80;99.90;;;;;;5024125;28;20447;-83
2022/03/28 01:45:33;;;;;;;2.63;2.50;;;6.80;99.90;;;;;;5034452;28;20055;-84
2022/03/28 01:47:58;;;;;;;1.52;1.42;;;6.80;99.90;;;;;;5043625;28;20730;-83
2022/03/28 01:50:25;;;;;;;2.55;2.35;;;6.80;99.90;;;;;;5043531;28;20406;-83
2022/03/28 01:52:51;;;;;;;1.92;1.60;;;6.80;99.90;;;;;;5042351;28;20052;-83
2022/03/28 01:55:17;;;;;;;2.72;1.35;;;6.80;99.90;;;;;;5043499;28;20047;-84
2022/03/28 01:57:43;;;;;;;1.23;1.23;;;6.70;99.90;;;;;;5041481;28;20037;-84
2022/03/28 02:00:17;;;;;;;1.50;1.50;;;6.70;99.90;;;;;;5023172;28;20100;-84
2022/03/28 02:02:44;;;;;;;1.02;0.93;;;6.70;99.90;;;;;;5021851;28;20053;-84
2022/03/28 02:05:13;;;;;;;2.05;1.95;;;6.70;99.90;;;;;;5023224;28;20045;-83
2022/03/28 02:07:42;;;;;;;2.00;1.90;;;6.70;99.90;;;;;;5022970;28;20041;-77
2022/03/28 02:10:09;;;;;;;1.05;1.05;;;6.70;99.90;;;;;;5023792;28;20044;-83
2022/03/28 02:12:35;;;;;;;1.15;1.15;;;6.70;99.90;;;;;;5023693;28;20275;-83
2022/03/28 02:15:01;;;;;;;1.13;1.08;;;6.70;99.90;;;;;;5023732;28;20087;-83
2022/03/28 02:17:27;;;;;;;1.83;1.52;;;6.70;99.90;;;;;;5022292;28;20049;-83
2022/03/28 02:19:52;;;;;;;2.30;1.13;;;6.70;99.90;;;;;;5020495;28;20095;-83
2022/03/28 02:22:18;;;;;;;1.40;1.30;;;6.70;99.90;;;;;;5021627;28;20047;-84
2022/03/28 02:24:43;;;;;;;1.05;1.02;;;6.60;99.90;;;;;;5038440;28;20084;-83
2022/03/28 02:27:09;;;;;;;1.48;1.38;;;6.60;99.90;;;;;;5022957;28;20049;-84
2022/03/28 02:29:35;;;;;;;0.80;0.80;;;6.60;99.90;;;;;;5021392;28;20092;-84
2022/03/28 02:32:01;;;;;;;7.65;1.27;;;6.60;99.90;;;;;;5023238;28;20045;-83
2022/03/28 02:34:27;;;;;;;1.95;1.85;;;6.60;99.90;;;;;;5022454;28;20045;-83
2022/03/28 02:36:53;;;;;;;1.17;1.15;;;6.50;99.90;;;;;;5022212;28;20049;-82
2022/03/28 02:39:18;;;;;;;1.25;1.25;;;6.50;99.90;;;;;;5022574;28;20090;-83
2022/03/28 02:41:44;;;;;;;1.73;1.35;;;6.50;99.90;;;;;;5022730;28;20045;-84
2022/03/28 02:44:09;;;;;;;1.45;1.42;;;6.50;99.90;;;;;;5022003;28;20044;-84
2022/03/28 02:46:36;;;;;;;1.10;0.85;;;6.50;99.90;;;;;;5040303;28;20052;-83
2022/03/28 02:49:02;;;;;;;2.00;1.90;;;6.50;99.90;;;;;;5042222;28;20072;-83
2022/03/28 02:51:27;;;;;;;1.38;1.38;;;6.50;99.90;;;;;;5039932;28;20081;-83
2022/03/28 02:53:53;;;;;;;1.88;1.77;;;6.50;99.90;;;;;;5042802;28;20123;-83
2022/03/28 02:56:18;;;;;;;1.45;1.35;;;6.50;99.90;;;;;;5041696;28;20049;-83
2022/03/28 02:58:44;;;;;;;1.95;1.83;;;6.50;99.90;;;;;;5032232;28;20045;-83
2022/03/28 03:01:09;;;;;;;3.17;2.88;;;6.50;99.90;;;;;;5022210;28;20037;-83
2022/03/28 03:03:35;;;;;;;2.40;1.50;;;6.50;99.90;;;;;;5022407;28;20203;-82
2022/03/28 03:06:00;;;;;;;7.15;1.02;;;6.50;99.90;;;;;;5021880;28;20029;-83
2022/03/28 03:08:26;;;;;;;0.85;0.85;;;6.50;99.90;;;;;;5020698;28;20041;-83
2022/03/28 03:10:52;;;;;;;0.98;0.98;;;6.50;99.90;;;;;;5022486;28;20045;-84
2022/03/28 03:13:17;;;;;;;0.95;0.90;;;6.50;99.90;;;;;;5021583;28;20037;-84
2022/03/28 03:15:43;;;;;;;1.73;1.63;;;6.60;99.90;;;;;;5022660;28;20043;-83
2022/03/28 03:18:08;;;;;;;0.90;0.90;;;6.50;99.90;;;;;;5020894;28;20408;-77
2022/03/28 03:20:34;;;;;;;1.10;1.10;;;6.50;99.90;;;;;;5021902;28;20037;-83
2022/03/28 03:23:01;;;;;;;0.80;0.80;;;6.50;99.90;;;;;;5020376;28;20110;-83
2022/03/28 03:25:26;;;;;;;0.73;0.45;;;6.50;99.90;;;;;;5022075;28;20551;-83
2022/03/28 03:27:52;;;;;;;2.90;1.50;;;6.50;99.90;;;;;;5020794;28;20068;-83
2022/03/28 03:30:19;;;;;;;2.38;2.17;;;6.50;99.90;;;;;;5021345;28;20040;-83
2022/03/28 03:32:45;;;;;;;1.27;1.17;;;6.50;99.90;;;;;;5022260;28;20072;-83
2022/03/28 03:35:11;;;;;;;1.65;1.55;;;6.50;99.90;;;;;;5021756;28;20084;-83
2022/03/28 03:37:38;;;;;;;1.70;1.30;;;6.50;99.90;;;;;;5021469;28;20029;-84
2022/03/28 03:40:05;;;;;;;1.33;1.30;;;6.50;99.90;;;;;;5021194;28;20049;-84
2022/03/28 03:42:33;;;;;;;1.92;1.80;;;6.40;99.90;;;;;;5019927;28;20045;-84
2022/03/28 03:45:00;;;;;;;0.80;0.80;;;6.40;99.90;;;;;;5026193;28;20052;-83
2022/03/28 03:47:25;;;;;;;2.25;1.48;;;6.40;99.90;;;;;;5041730;28;20135;-83
2022/03/28 03:49:51;;;;;;;1.77;1.67;;;6.40;99.90;;;;;;5039931;28;20136;-84
2022/03/28 03:52:17;;;;;;;4.90;1.77;;;6.40;99.90;;;;;;5041032;28;20045;-84
2022/03/28 03:54:43;;;;;;;1.33;1.25;;;6.40;99.90;;;;;;5041835;28;20033;-83
2022/03/28 03:57:08;;;;;;;0.55;0.55;;;6.40;99.90;;;;;;5041941;28;20037;-83
2022/03/28 03:59:34;;;;;;;1.08;1.02;;;6.40;99.90;;;;;;5009931;28;20484;-83
2022/03/28 04:02:00;;;;;;;1.98;1.05;;;6.40;99.90;;;;;;5025481;28;20041;-83
2022/03/28 04:04:26;;;;;;;1.50;1.27;;;6.40;99.90;;;;;;5024817;28;20049;-83
2022/03/28 04:06:51;;;;;;;3.00;2.70;;;6.40;99.90;;;;;;5024650;28;20128;-83
2022/03/28 04:09:17;;;;;;;2.08;1.98;;;6.40;99.90;;;;;;5025641;28;20136;-84
2022/03/28 04:11:43;;;;;;;1.25;1.25;;;6.40;99.90;;;;;;5025767;28;20084;-84
2022/03/28 04:14:08;;;;;;;2.15;2.05;;;6.40;99.90;;;;;;5025995;28;20048;-78
2022/03/28 04:16:34;;;;;;;3.08;2.70;;;6.40;99.90;;;;;;5025676;28;20504;-83
2022/03/28 04:19:00;;;;;;;3.13;2.92;;;6.40;99.90;;;;;;5025580;28;20572;-83
2022/03/28 04:21:26;;;;;;;2.60;2.40;;;6.40;99.90;;;;;;5024423;28;20120;-84
2022/03/28 04:23:51;;;;;;;3.88;2.25;;;6.40;99.90;;;;;;5025217;28;20038;-83
2022/03/28 04:26:17;;;;;;;5.00;2.42;;;6.40;99.90;;;;;;5025571;28;20049;-83
2022/03/28 04:28:43;;;;;;;2.30;2.20;;;6.40;99.90;;;;;;5024383;28;20104;-84
2022/03/28 04:31:09;;;;;;;1.75;1.73;;;6.40;99.90;;;;;;5025014;28;20041;-84
2022/03/28 04:33:35;;;;;;;2.33;2.10;;;6.40;99.90;;;;;;5025540;28;20053;-84
2022/03/28 04:36:00;;;;;;;1.05;1.05;;;6.30;99.90;;;;;;5024388;28;20049;-84
2022/03/28 04:38:26;;;;;;;2.72;2.45;;;6.30;99.90;;;;;;5023687;28;20499;-83
2022/03/28 04:40:53;;;;;;;1.92;1.83;;;6.30;99.90;;;;;;5025001;28;20042;-83
2022/03/28 04:43:18;;;;;;;4.30;2.25;;;6.40;99.90;;;;;;5023417;28;20042;-84
2022/03/28 04:45:44;;;;;;;1.92;1.85;;;6.30;99.90;;;;;;5036700;28;20041;-83
2022/03/28 04:48:09;;;;;;;1.05;0.93;;;6.30;99.90;;;;;;5043503;28;20094;-83
2022/03/28 04:50:35;;;;;;;1.65;1.55;;;6.30;99.90;;;;;;5044109;28;20052;-83
2022/03/28 04:53:01;;;;;;;1.77;1.67;;;6.30;99.90;;;;;;5044837;28;20041;-83
2022/03/28 04:55:27;;;;;;;1.10;1.10;;;6.30;99.90;;;;;;5037063;28;20041;-83
2022/03/28 04:57:53;;;;;;;2.63;2.42;;;6.30;99.90;;;;;;5023483;28;20037;-83
2022/03/28 05:00:18;;;;;;;2.08;1.98;;;6.30;99.90;;;;;;5024520;28;20121;-83
2022/03/28 05:02:44;;;;;;;2.53;2.33;;;6.30;99.90;;;;;;5023860;28;20107;-85
2022/03/28 05:05:10;;;;;;;1.25;1.25;;;6.30;99.90;;;;;;5023354;28;20132;-83
2022/03/28 05:07:36;;;;;;;1.30;1.20;;;6.40;99.90;;;;;;5024236;28;20041;-83
2022/03/28 05:10:05;;;;;;;3.03;2.80;;;6.40;99.90;;;;;;5023581;28;20125;-84
2022/03/28 05:12:32;;;;;;;2.47;2.28;;;6.40;99.90;;;;;;5024584;28;20491;-84
2022/03/28 05:14:57;;;;;;;2.53;2.33;;;6.40;99.90;;;;;;5021954;28;20648;-83
2022/03/28 05:17:26;;;;;;;1.55;1.55;;;6.40;99.90;;;;;;5026843;28;20128;-84
2022/03/28 05:19:52;;;;;;;2.03;1.92;;;6.40;99.90;;;;;;5031439;28;20033;-84
2022/03/28 05:22:19;;;;;;;1.75;1.65;;;6.40;99.90;;;;;;5023701;28;20140;-83
2022/03/28 05:24:45;;;;;;;3.65;2.50;;;6.30;99.90;;;;;;5024823;28;20042;-83
2022/03/28 05:27:10;;;;;;;2.50;2.30;;;6.40;99.90;;;;;;5021916;28;20041;-85
2022/03/28 05:29:36;;;;;;;1.35;1.35;;;6.40;99.90;;;;;;5023995;28;20084;-83
2022/03/28 05:32:03;;;;;;;3.35;2.92;;;6.40;99.90;;;;;;5039061;28;20100;-83
2022/03/28 05:34:30;;;;;;;1.98;1.88;;;6.40;99.90;;;;;;5021388;28;20665;-83
2022/03/28 05:37:00;;;;;;;2.03;1.92;;;6.40;99.90;;;;;;5022725;28;20041;-85
2022/03/28 05:39:26;;;;;;;1.92;1.83;;;6.40;99.90;;;;;;5023100;28;20052;-83
2022/03/28 05:41:52;;;;;;;2.72;2.40;;;6.40;99.90;;;;;;5021773;28;20049;-85
2022/03/28 05:44:19;;;;;;;1.77;1.67;;;6.40;99.90;;;;;;5021765;28;20034;-85
2022/03/28 05:46:45;;;;;;;2.25;2.15;;;6.40;99.90;;;;;;5024316;28;20069;-85
2022/03/28 05:49:11;;;;;;;2.05;1.80;;;6.40;99.90;;;;;;5022392;28;20388;-88
2022/03/28 05:51:44;;;;;;;0.95;0.95;;;6.40;99.90;;;;;;5022890;28;20610;-88
2022/03/28 05:54:19;;;;;;;2.25;2.13;;;6.40;99.90;;;;;;5006765;28;20128;-89
2022/03/28 05:56:46;;;;;;;3.55;2.75;;;6.40;99.90;;;;;;5014867;28;20062;-86
2022/03/28 05:59:11;;;;;;;2.85;2.65;;;6.40;99.90;;;;;;5009471;28;20034;-85
2022/03/28 06:01:37;;;;;;;2.25;2.05;;;6.40;99.90;;;;;;5001228;28;20142;-90
2022/03/28 06:04:04;;;;;;;2.97;2.33;;;6.40;99.90;;;;;;5022300;28;20158;-86
2022/03/28 06:06:30;;;;;;;3.05;2.88;;;6.40;99.90;;;;;;5020497;28;20092;-80
2022/03/28 06:08:56;;;;;;;2.10;1.98;;;6.40;99.90;;;;;;5022141;28;20042;-79
2022/03/28 06:11:22;;;;;;;2.88;1.60;;;6.40;99.90;;;;;;5022014;28;20052;-80
2022/03/28 06:13:47;;;;;;;2.03;1.92;;;6.40;99.90;;;;;;5021833;28;20052;-79
2022/03/28 06:16:13;;;;;;;3.03;2.83;;;6.40;99.90;;;;;;5021074;28;20065;-79
2022/03/28 06:18:38;;;;;;;5.32;2.75;;;6.40;99.90;;;;;;5022856;28;20049;-79
2022/03/28 06:21:04;;;;;;;1.70;1.60;;;6.40;99.90;;;;;;5037407;28;20045;-79
2022/03/28 06:23:29;;;;;;;2.25;2.08;;;6.50;99.90;;;;;;5022941;28;20049;-79
2022/03/28 06:25:55;;;;;;;3.10;2.90;;;6.50;99.90;;;;;;5022823;28;20041;-79
2022/03/28 06:28:21;;;;;;;2.17;2.05;;;6.50;99.90;;;;;;5022276;28;20038;-80
2022/03/28 06:30:46;;;;;;;3.35;3.05;;;6.50;99.90;;;;;;5023097;28;20507;-79
2022/03/28 06:33:12;;;;;;;2.10;1.92;;;6.50;99.90;;;;;;5022027;28;20056;-79
2022/03/28 06:35:39;;;;;;;3.35;2.92;;;6.50;99.90;;;;;;5037582;28;20053;-80
2022/03/28 06:38:05;;;;;;;3.47;2.50;;;6.50;99.90;;;;;;5023249;28;20123;-80
2022/03/28 06:40:30;;;;;;;2.90;2.70;;;6.50;99.90;;;;;;5022137;28;20064;-82
2022/03/28 06:42:56;;;;;;;8.13;3.20;;;6.50;99.90;;;;;;5023969;28;20041;-91
2022/03/28 06:45:22;;;;;;;1.63;1.25;;;6.50;99.90;;;;;;5031911;28;20576;-82
2022/03/28 06:47:51;;;;;;;3.50;3.30;;;6.50;99.90;;;;;;5042641;28;20041;-76
2022/03/28 06:50:17;;;;;;;2.33;2.22;;;6.50;99.90;;;;;;5022277;28;20694;-81
2022/03/28 06:52:43;;;;;;;2.17;2.08;;;6.50;99.90;;;;;;5006716;28;20299;-81
2022/03/28 06:55:08;;;;;;;2.55;2.45;;;6.50;99.90;;;;;;5001580;28;20646;-79
2022/03/28 06:57:35;;;;;;;1.70;1.60;;;6.50;99.90;;;;;;5001972;28;20451;-81
2022/03/28 07:00:01;;;;;;;2.13;2.03;;;6.50;99.90;;;;;;5001909;28;20038;-81
2022/03/28 07:02:26;;;;;;;3.10;2.90;;;6.50;99.90;;;;;;5013108;28;20064;-81
2022/03/28 07:04:52;;;;;;;2.30;2.20;;;6.50;99.90;;;;;;5021330;28;20590;-82
2022/03/28 07:07:17;;;;;;;3.83;3.58;;;6.50;99.90;;;;;;5019203;28;20036;-82
2022/03/28 07:09:43;;;;;;;4.90;3.35;;;6.50;99.90;;;;;;5021047;28;20614;-82
2022/03/28 07:12:09;;;;;;;1.42;1.42;;;6.50;99.90;;;;;;5021639;28;20045;-79
2022/03/28 07:14:35;;;;;;;2.30;2.00;;;6.50;99.90;;;;;;5021253;28;20148;-82
2022/03/28 07:17:01;;;;;;;3.05;2.85;;;6.50;99.90;;;;;;5021102;28;20554;-81
2022/03/28 07:19:27;;;;;;;1.42;1.42;;;6.50;99.90;;;;;;5020921;28;20424;-81
2022/03/28 07:21:53;;;;;;;3.45;2.22;;;6.50;99.90;;;;;;5019557;28;20033;-82
2022/03/28 07:24:20;;;;;;;1.70;1.60;;;6.50;99.90;;;;;;5019470;28;20046;-82
2022/03/28 07:26:48;;;;;;;1.75;1.65;;;6.50;99.90;;;;;;5020892;28;20041;-82
2022/03/28 07:29:17;;;;;;;1.92;1.83;;;6.50;99.90;;;;;;5019134;28;20045;-82
2022/03/28 07:31:46;;;;;;;0.65;0.65;;;6.50;99.90;;;;;;5019711;28;20163;-82
2022/03/28 07:34:29;;;;;;;0.70;0.70;;;6.60;99.90;;;;;;5020523;28;20037;-81
2022/03/28 07:36:55;;;;;;;2.30;1.70;;;6.50;99.90;;;;;;5018144;28;20041;-82
2022/03/28 07:39:21;;;;;;;1.05;1.05;;;6.60;99.90;;;;;;5020651;28;20259;-81
2022/03/28 07:41:48;;;;;;;0.50;0.50;;;6.60;99.90;;;;;;5019705;28;20139;-81
2022/03/28 07:44:14;;;;;;;1.30;1.23;;;6.60;99.90;;;;;;5009996;28;20645;-82
2022/03/28 07:46:41;;;;;;;3.80;1.10;;;6.60;99.90;;;;;;5040508;28;20045;-81
2022/03/28 07:49:07;;;;;;;3.25;1.20;;;6.60;99.90;;;;;;5040625;28;20116;-81
2022/03/28 07:51:33;;;;;;;1.75;1.65;;;6.70;99.90;;;;;;5038446;28;20482;-81
2022/03/28 07:53:59;;;;;;;4.72;3.00;;;6.60;99.90;;;;;;5032496;28;20064;-81
2022/03/28 07:56:25;;;;;;;0.52;0.52;;;6.60;99.90;;;;;;5019931;28;20512;-81
2022/03/28 07:58:51;;;;;;;1.40;1.30;;;6.60;99.90;;;;;;5020764;28;20042;-81
2022/03/28 08:01:16;;;;;;;4.38;2.67;;;6.60;99.90;;;;;;5020035;28;20037;-82
2022/03/28 08:03:42;;;;;;;1.80;1.70;;;6.60;99.90;;;;;;5002707;28;20046;-81
2022/03/28 08:06:08;;;;;;;1.05;1.02;;;6.70;99.90;;;;;;5019893;28;20085;-81
2022/03/28 08:08:35;;;;;;;1.02;1.02;;;6.70;99.90;;;;;;5020950;28;20073;-81
2022/03/28 08:11:01;;;;;;;1.58;1.50;;;6.70;99.90;;;;;;5020812;28;20037;-81
2022/03/28 08:13:27;;;;;;;2.85;2.65;;;6.70;99.90;;;;;;5019058;28;20122;-81
2022/03/28 08:15:52;;;;;;;1.80;1.70;;;6.70;99.90;;;;;;5020644;28;20049;-81
2022/03/28 08:18:18;;;;;;;2.22;2.05;;;6.70;99.90;;;;;;5019069;28;20049;-81
2022/03/28 08:20:44;;;;;;;0.90;0.90;;;6.70;99.90;;;;;;5018083;28;20045;-83
2022/03/28 08:23:10;;;;;;;2.28;1.58;;;6.70;99.90;;;;;;5020584;28;20436;-85
2022/03/28 08:25:36;;;;;;;0.70;0.70;;;6.70;99.90;;;;;;5020413;28;20041;-85
2022/03/28 08:28:02;;;;;;;2.42;2.17;;;6.70;99.90;;;;;;5020653;28;20048;-85
2022/03/28 08:30:28;;;;;;;2.20;1.63;;;6.70;99.90;;;;;;5018339;28;20042;-86
2022/03/28 08:32:55;;;;;;;2.95;1.95;;;6.80;99.90;;;;;;5020002;28;20411;-86
2022/03/28 08:35:21;;;;;;;1.23;1.23;;;6.70;99.90;;;;;;5019586;28;20080;-87
2022/03/28 08:37:48;;;;;;;1.25;1.17;;;6.70;99.90;;;;;;5020028;28;20111;-87
2022/03/28 08:40:17;;;;;;;1.75;1.65;;;6.70;99.90;;;;;;5019145;28;20038;-86
2022/03/28 08:42:43;;;;;;;1.73;1.63;;;6.70;99.90;;;;;;5002833;28;20045;-86
2022/03/28 08:45:11;;;;;;;2.10;2.00;;;6.80;99.90;;;;;;5023912;28;20504;-86
2022/03/28 08:47:42;;;;;;;2.65;1.98;;;6.80;99.90;;;;;;5031956;28;20045;-86
2022/03/28 08:50:10;;;;;;;2.75;1.40;;;6.80;99.90;;;;;;5023898;28;20407;-86
2022/03/28 08:52:38;;;;;;;2.25;1.23;;;6.80;99.90;;;;;;5023893;28;20049;-86
2022/03/28 08:55:05;;;;;;;1.15;1.08;;;6.90;99.90;;;;;;5022128;28;20045;-86
2022/03/28 08:57:31;;;;;;;4.80;2.08;;;6.90;99.90;;;;;;5024308;28;20055;-86
2022/03/28 08:59:58;;;;;;;3.42;3.15;;;6.90;99.90;;;;;;5024513;28;20237;-86
2022/03/28 09:02:37;;;;;;;1.80;1.75;;;6.90;99.90;;;;;;5006501;28;20184;-87
2022/03/28 09:05:04;;;;;;;2.33;2.13;;;6.90;99.90;;;;;;5023924;28;20050;-86
2022/03/28 09:07:30;;;;;;;2.75;2.38;;;7.00;99.90;;;;;;5024007;28;20065;-86
2022/03/28 09:10:05;;;;;;;3.28;3.08;;;7.00;99.90;;;;;;5025608;28;20038;-87
2022/03/28 09:12:31;;;;;;;7.50;3.80;;;7.10;99.90;;;;;;5037436;28;20049;-87
2022/03/28 09:15:01;;;;;;;2.88;2.53;;;7.00;99.90;;;;;;5043908;28;20037;-87
2022/03/28 09:17:27;;;;;;;4.07;3.67;;;7.10;99.90;;;;;;5025018;28;20306;-86
2022/03/28 09:20:00;;;;;;;3.25;3.05;;;7.10;99.90;;;;;;5023354;28;20053;-87
2022/03/28 09:22:34;;;;;;;4.22;3.30;;;7.10;99.90;;;;;;5023588;28;20038;-87
2022/03/28 09:25:09;;;;;;;3.33;3.08;;;7.20;99.90;;;;;;5024167;28;20408;-86
2022/03/28 09:27:37;;;;;;;3.67;3.13;;;7.20;99.90;;;;;;5023929;28;20053;-87
2022/03/28 09:30:10;;;;;;;3.78;3.47;;;7.20;99.90;;;;;;5025799;28;20410;-87
2022/03/28 09:32:42;;;;;;;4.07;3.28;;;7.20;99.90;;;;;;5029664;28;20072;-87
2022/03/28 09:35:12;;;;;;;3.75;3.50;;;7.30;99.90;;;;;;5020862;28;20210;-86
2022/03/28 09:37:58;;;;;;;4.45;4.05;;;7.30;99.90;;;;;;5023169;28;20052;-86
2022/03/28 09:40:36;;;;;;;3.15;2.95;;;7.30;99.90;;;;;;5022606;28;20050;-87
2022/03/28 09:43:05;;;;;;;4.85;2.97;;;7.30;99.90;;;;;;5038260;28;20052;-86
2022/03/28 09:45:37;;;;;;;2.63;2.53;;;7.40;99.90;;;;;;5031039;28;20550;-85
2022/03/28 09:48:08;;;;;;;4.05;3.78;;;7.40;99.90;;;;;;5042844;28;20971;-86
2022/03/28 09:50:40;;;;;;;4.07;2.67;;;7.30;99.90;;;;;;5024260;28;20045;-85
2022/03/28 09:53:21;;;;;;;6.25;3.65;;;7.40;99.90;;;;;;5023017;28;20077;-86
2022/03/28 09:55:55;;;;;;;5.65;4.35;;;7.40;99.90;;;;;;5022530;28;20037;-86
2022/03/28 09:58:56;;;;;;;12.57;4.68;;;7.50;99.90;;;;;;5021932;28;20075;-85
2022/03/28 10:01:27;;;;;;;4.30;4.00;;;7.50;99.90;;;;;;5022730;28;20052;-85
2022/03/28 10:03:56;;;;;;;3.90;3.08;;;7.50;99.90;;;;;;5037791;28;20060;-85
2022/03/28 10:06:21;;;;;;;4.38;3.33;;;7.60;99.90;;;;;;5020089;28;20037;-86
2022/03/28 10:08:48;;;;;;;4.15;3.55;;;7.60;99.90;;;;;;5022200;28;20396;-85
2022/03/28 10:11:16;;;;;;;4.93;2.85;;;7.60;99.90;;;;;;5022482;28;20030;-85
2022/03/28 10:13:41;;;;;;;3.60;3.30;;;7.60;99.90;;;;;;5022319;28;20053;-85
2022/03/28 10:16:08;;;;;;;2.65;2.45;;;7.60;99.90;;;;;;5022735;28;20625;-85
2022/03/28 10:18:36;;;;;;;4.45;4.07;;;7.60;99.90;;;;;;5021202;28;20053;-86
2022/03/28 10:21:06;;;;;;;4.03;3.55;;;7.70;99.90;;;;;;5021621;28;20045;-85
2022/03/28 10:23:37;;;;;;;3.95;3.67;;;7.70;99.90;;;;;;5021792;28;20054;-85
2022/03/28 10:26:07;;;;;;;3.42;3.22;;;7.80;99.90;;;;;;5022330;28;20102;-85
2022/03/28 10:28:33;;;;;;;3.83;3.47;;;7.80;99.90;;;;;;5021992;28;20061;-83
2022/03/28 10:31:11;;;;;;;3.15;2.97;;;7.90;99.90;;;;;;5020164;28;20594;-85
2022/03/28 10:33:46;;;;;;;4.43;4.03;;;7.80;99.90;;;;;;5022630;28;20034;-84
2022/03/28 10:36:29;;;;;;;8.23;5.40;;;7.90;99.90;;;;;;5021685;28;20037;-85
2022/03/28 10:39:35;;;;;;;4.78;3.10;;;7.90;99.90;;;;;;5021162;28;20128;-83
2022/03/28 10:42:15;;;;;;;4.53;4.10;;;7.90;99.90;;;;;;5020051;28;20049;-82
2022/03/28 10:44:46;;;;;;;6.07;4.32;;;8.00;99.90;;;;;;5024867;28;20036;-82
2022/03/28 10:47:14;;;;;;;5.32;3.92;;;8.00;99.90;;;;;;5040285;28;20057;-82
2022/03/28 10:49:42;;;;;;;3.30;3.05;;;8.10;99.90;;;;;;5018978;28;20513;-83
2022/03/28 10:52:14;;;;;;;3.92;2.67;;;8.10;99.90;;;;;;5021850;28;20379;-82
2022/03/28 10:54:39;;;;;;;5.57;3.88;;;8.10;99.90;;;;;;5020158;28;20400;-83
2022/03/28 10:57:05;;;;;;;3.85;3.63;;;8.10;99.90;;;;;;5022027;28;20040;-83
2022/03/28 10:59:31;;;;;;;3.65;3.35;;;8.10;99.90;;;;;;5020986;28;20416;-83
2022/03/28 11:01:57;;;;;;;3.42;3.10;;;8.10;99.90;;;;;;5021717;28;20498;-82
2022/03/28 11:04:23;;;;;;;4.72;4.38;;;8.10;99.90;;;;;;5019736;28;20067;-83
2022/03/28 11:07:03;;;;;;;5.32;4.82;;;8.20;99.90;;;;;;5020018;28;20080;-82
2022/03/28 11:09:40;;;;;;;9.52;4.38;;;8.20;99.90;;;;;;5020298;28;20049;-82
2022/03/28 11:12:21;;;;;;;5.72;4.35;;;8.20;99.90;;;;;;5020475;28;20049;-83
2022/03/28 11:14:49;;;;;;;4.45;4.03;;;8.20;99.90;;;;;;5019802;28;20041;-83
2022/03/28 11:17:38;;;;;;;3.97;3.67;;;8.30;99.90;;;;;;5021005;28;20504;-83
2022/03/28 11:20:17;;;;;;;9.63;5.20;;;8.40;99.90;;;;;;5020318;28;20077;-83
2022/03/28 11:22:50;;;;;;;8.70;4.78;;;8.40;99.90;;;;;;5021214;28;20160;-83
2022/03/28 11:25:38;;;;;;;9.70;4.13;;;8.40;99.90;;;;;;5018495;28;20072;-83
2022/03/28 11:28:08;;;;;;;3.92;3.65;;;8.50;99.90;;;;;;5021037;28;20503;-83
2022/03/28 11:30:48;;;;;;;5.50;5.10;;;8.50;99.90;;;;;;5021808;28;20467;-82
2022/03/28 11:33:22;;;;;;;4.72;4.43;;;8.60;99.90;;;;;;5019048;28;20107;-84
2022/03/28 11:35:54;;;;;;;7.03;5.13;;;8.60;99.90;;;;;;5018567;28;20041;-83
2022/03/28 11:38:21;;;;;;;;;;;8.60;99.90;;;;;;5020716;28;20049;-83
2022/03/28 11:40:47;;;;;;;4.05;3.78;;;8.60;99.90;;;;;;5019356;28;19921;-83
2022/03/28 11:43:12;;;;;;;4.32;3.92;;;8.60;99.90;;;;;;5020813;28;20412;-83
2022/03/28 11:45:49;;;;;;;9.70;4.80;;;8.70;99.90;;;;;;5031766;28;20487;-83
2022/03/28 11:48:19;;;;;;;6.40;5.03;;;8.70;99.90;;;;;;5040213;28;20128;-83
2022/03/28 11:50:45;;;;;;;4.63;4.22;;;8.70;99.90;;;;;;5032961;28;20064;-82
2022/03/28 11:53:20;;;;;;;5.95;4.47;;;8.80;99.90;;;;;;5035229;28;20045;-83
2022/03/28 11:55:53;;;;;;;5.75;4.15;;;8.80;99.90;;;;;;5020844;28;20375;-82
2022/03/28 11:58:33;;;;;;;3.03;2.83;;;8.90;99.90;;;;;;5019106;28;20072;-82
2022/03/28 12:01:09;;;;;;;5.65;5.18;;;8.90;99.90;;;;;;5019303;28;20492;-83
2022/03/28 12:03:38;;;;;;;4.35;3.78;;;8.90;99.90;;;;;;5021117;28;20524;-83
2022/03/28 12:06:05;;;;;;;4.65;4.30;;;8.90;99.90;;;;;;5000421;28;20058;-83
2022/03/28 12:08:31;;;;;;;5.20;4.45;;;8.90;99.90;;;;;;5000553;28;20077;-83
2022/03/28 12:10:56;;;;;;;6.40;5.75;;;9.00;99.90;;;;;;5003957;28;20573;-83
2022/03/28 12:13:24;;;;;;;5.47;4.53;;;9.00;99.90;;;;;;5020103;28;20033;-83
2022/03/28 12:15:52;;;;;;;4.78;4.38;;;9.10;99.90;;;;;;5019554;28;20046;-83
2022/03/28 12:18:19;;;;;;;15.00;5.68;;;9.10;99.90;;;;;;5020628;28;20408;-84
2022/03/28 12:20:48;;;;;;;8.57;4.97;;;9.10;99.90;;;;;;5022270;28;20528;-83
2022/03/28 12:23:15;;;;;;;4.20;3.90;;;9.10;99.90;;;;;;5022721;28;20085;-83
2022/03/28 12:25:44;;;;;;;5.60;5.07;;;9.10;99.90;;;;;;5024175;28;20064;-83
2022/03/28 12:28:12;;;;;;;6.40;4.97;;;9.10;99.90;;;;;;5023807;28;20045;-82
2022/03/28 12:30:44;;;;;;;5.43;5.03;;;9.10;99.90;;;;;;5024138;28;20049;-83
2022/03/28 12:33:15;;;;;;;7.85;4.60;;;9.20;99.90;;;;;;5023778;28;20042;-83
2022/03/28 12:35:43;;;;;;;9.03;7.50;;;9.20;99.90;;;;;;5023293;28;20192;-83
2022/03/28 12:38:13;;;;;;;8.52;5.95;;;9.30;99.90;;;;;;5024300;28;20307;-83
2022/03/28 12:40:40;;;;;;;5.38;4.57;;;9.30;99.90;;;;;;5022767;28;20196;-79
2022/03/28 12:43:05;;;;;;;7.80;5.43;;;9.40;99.90;;;;;;5022896;28;20128;-83
2022/03/28 12:45:31;;;;;;;7.93;6.53;;;9.40;99.90;;;;;;5033661;28;20068;-82
2022/03/28 12:47:58;;;;;;;6.68;5.07;;;9.50;99.90;;;;;;5043874;28;20045;-83
2022/03/28 12:50:26;;;;;;;6.45;5.15;;;9.60;99.90;;;;;;5032465;28;20041;-83
2022/03/28 12:53:07;;;;;;;5.32;4.82;;;9.60;99.90;;;;;;5023599;28;20164;-82
2022/03/28 12:55:32;;;;;;;5.43;4.93;;;9.70;99.90;;;;;;5022948;28;20038;-83
2022/03/28 12:58:00;;;;;;;9.05;5.90;;;9.80;99.90;;;;;;5023784;28;20675;-83
2022/03/28 13:00:26;;;;;;;7.50;4.65;;;9.80;99.90;;;;;;5023142;28;20048;-83